createdAt,value
2023-11-30T00:00:13.319Z,7.30
2023-11-30T00:02:43.013Z,6.63
2023-11-30T00:05:12.777Z,6.53
2023-11-30T00:07:42.437Z,6.60
2023-11-30T00:10:14.944Z,7.33
2023-11-30T00:12:44.737Z,6.97
2023-11-30T00:15:14.556Z,6.63
2023-11-30T00:17:44.556Z,7.00
2023-11-30T00:20:14.796Z,6.13
2023-11-30T00:22:44.984Z,7.17
2023-11-30T00:25:17.371Z,6.77
2023-11-30T00:27:47.116Z,6.70
2023-11-30T00:30:17.032Z,6.90
2023-11-30T00:32:46.773Z,6.80
2023-11-30T00:35:16.492Z,7.40
2023-11-30T00:37:46.200Z,6.97
2023-11-30T00:40:18.778Z,6.97
2023-11-30T00:42:50.406Z,6.57
2023-11-30T00:45:20.341Z,6.23
2023-11-30T00:47:50.131Z,6.07
2023-11-30T00:50:19.858Z,6.87
2023-11-30T00:52:49.453Z,6.53
2023-11-30T00:55:21.804Z,7.23
2023-11-30T00:57:51.456Z,7.70
2023-11-30T01:00:21.526Z,6.67
2023-11-30T01:02:51.236Z,6.80
2023-11-30T01:05:20.956Z,7.00
2023-11-30T01:07:50.535Z,7.07
2023-11-30T01:10:22.832Z,7.47
2023-11-30T01:12:52.626Z,6.27
2023-11-30T01:15:22.317Z,7.73
2023-11-30T01:17:52.297Z,6.83
2023-11-30T01:20:22.728Z,6.67
2023-11-30T01:22:52.513Z,6.33
2023-11-30T01:25:24.969Z,6.80
2023-11-30T01:27:56.018Z,6.43
2023-11-30T01:30:25.777Z,7.13
2023-11-30T01:32:55.533Z,7.23
2023-11-30T01:35:30.180Z,7.07
2023-11-30T01:38:00.268Z,6.20
2023-11-30T01:40:33.492Z,6.03
2023-11-30T01:43:03.229Z,6.63
2023-11-30T01:45:33.694Z,7.10
2023-11-30T01:48:03.650Z,7.53
2023-11-30T01:50:33.410Z,5.83
2023-11-30T01:53:03.423Z,6.97
2023-11-30T01:55:38.449Z,6.83
2023-11-30T01:58:08.870Z,6.43
2023-11-30T02:00:40.341Z,6.23
2023-11-30T02:03:10.825Z,6.40
2023-11-30T02:05:41.254Z,6.67
2023-11-30T02:08:11.103Z,6.47
2023-11-30T02:10:44.496Z,6.27
2023-11-30T02:13:14.249Z,6.87
2023-11-30T02:15:43.963Z,6.03
2023-11-30T02:18:13.708Z,6.27
2023-11-30T02:20:43.356Z,5.70
2023-11-30T02:23:15.641Z,6.87
2023-11-30T02:25:45.331Z,6.30
2023-11-30T02:28:19.233Z,7.37
2023-11-30T02:30:51.048Z,6.13
2023-11-30T02:33:21.037Z,6.10
2023-11-30T02:35:50.904Z,6.30
2023-11-30T02:38:23.209Z,6.60
2023-11-30T02:40:53.034Z,5.83
2023-11-30T02:43:23.610Z,6.40
2023-11-30T02:45:53.267Z,6.30
2023-11-30T02:48:23.256Z,6.93
2023-11-30T02:50:52.970Z,6.90
2023-11-30T02:53:25.224Z,7.03
2023-11-30T02:55:54.897Z,7.10
2023-11-30T02:58:25.605Z,6.43
2023-11-30T03:00:55.284Z,6.23
2023-11-30T03:03:25.080Z,6.30
2023-11-30T03:05:54.716Z,6.27
2023-11-30T03:08:27.013Z,6.03
2023-11-30T03:10:56.924Z,6.63
2023-11-30T03:13:26.529Z,6.00
2023-11-30T03:15:56.307Z,7.07
2023-11-30T03:18:26.098Z,6.63
2023-11-30T03:20:55.781Z,6.87
2023-11-30T03:23:28.019Z,7.33
2023-11-30T03:25:57.730Z,7.07
2023-11-30T03:28:27.318Z,6.83
2023-11-30T03:30:57.079Z,6.97
2023-11-30T03:33:26.963Z,6.17
2023-11-30T03:35:57.299Z,6.70
2023-11-30T03:38:29.541Z,6.50
2023-11-30T03:40:59.239Z,5.93
2023-11-30T03:43:28.893Z,5.87
2023-11-30T03:45:58.539Z,6.07
2023-11-30T03:48:28.350Z,6.70
2023-11-30T03:50:58.005Z,7.03
2023-11-30T03:53:30.212Z,6.53
2023-11-30T03:55:59.899Z,6.63
2023-11-30T03:58:29.588Z,6.63
2023-11-30T04:00:59.205Z,7.30
2023-11-30T04:03:28.931Z,6.40
2023-11-30T04:05:58.688Z,6.70
2023-11-30T04:08:30.930Z,7.50
2023-11-30T04:11:00.598Z,6.13
2023-11-30T04:13:30.222Z,7.13
2023-11-30T04:15:59.892Z,7.77
2023-11-30T04:18:29.625Z,7.53
2023-11-30T04:20:59.288Z,7.37
2023-11-30T04:23:31.542Z,7.07
2023-11-30T04:26:01.187Z,7.13
2023-11-30T04:28:30.895Z,6.13
2023-11-30T04:31:01.911Z,6.87
2023-11-30T04:33:31.823Z,7.93
2023-11-30T04:36:01.851Z,6.40
2023-11-30T04:38:34.848Z,7.17
2023-11-30T04:41:04.537Z,6.97
2023-11-30T04:43:37.647Z,6.23
2023-11-30T04:46:07.713Z,6.23
2023-11-30T04:48:39.376Z,7.27
2023-11-30T04:51:11.036Z,6.73
2023-11-30T04:53:43.278Z,7.00
2023-11-30T04:56:14.000Z,7.10
2023-11-30T04:58:44.087Z,6.63
2023-11-30T05:01:13.804Z,6.70
2023-11-30T05:03:43.671Z,7.33
2023-11-30T05:06:13.528Z,6.47
2023-11-30T05:08:45.940Z,6.67
2023-11-30T05:11:15.667Z,7.03
2023-11-30T05:13:45.251Z,7.03
2023-11-30T05:16:15.845Z,7.33
2023-11-30T05:18:45.544Z,6.33
2023-11-30T05:21:15.312Z,6.37
2023-11-30T05:23:47.619Z,6.83
2023-11-30T05:26:17.289Z,6.67
2023-11-30T05:28:47.258Z,6.50
2023-11-30T05:31:17.085Z,6.70
2023-11-30T05:33:46.731Z,6.00
2023-11-30T05:36:13.785Z,6.90
2023-11-30T05:38:43.417Z,6.57
2023-11-30T05:41:15.673Z,6.37
2023-11-30T05:43:45.393Z,6.97
2023-11-30T05:46:15.045Z,6.60
2023-11-30T05:48:44.767Z,6.47
2023-11-30T05:51:14.986Z,6.37
2023-11-30T05:53:44.768Z,6.07
2023-11-30T05:56:17.080Z,6.13
2023-11-30T05:58:46.780Z,6.70
2023-11-30T06:01:18.227Z,6.20
2023-11-30T06:03:47.973Z,5.83
2023-11-30T06:06:17.711Z,6.83
2023-11-30T06:08:48.393Z,6.40
2023-11-30T06:11:21.120Z,6.00
2023-11-30T06:13:50.763Z,7.10
2023-11-30T06:16:20.443Z,6.13
2023-11-30T06:18:50.240Z,7.10
2023-11-30T06:21:20.892Z,7.07
2023-11-30T06:23:50.624Z,7.57
2023-11-30T06:26:23.021Z,7.20
2023-11-30T06:28:52.795Z,7.50
2023-11-30T06:31:22.459Z,7.00
2023-11-30T06:33:52.619Z,7.20
2023-11-30T06:36:22.310Z,8.13
2023-11-30T06:38:51.976Z,7.43
2023-11-30T06:41:24.482Z,7.67
2023-11-30T06:43:54.186Z,6.53
2023-11-30T06:46:24.381Z,6.90
2023-11-30T06:48:54.619Z,7.50
2023-11-30T06:51:24.311Z,7.00
2023-11-30T06:53:54.002Z,6.73
2023-11-30T06:56:26.339Z,7.17
2023-11-30T06:58:56.029Z,7.07
2023-11-30T07:01:27.018Z,6.67
2023-11-30T07:03:57.621Z,7.10
2023-11-30T07:06:27.569Z,6.70
2023-11-30T07:08:57.260Z,6.73
2023-11-30T07:11:29.538Z,6.97
2023-11-30T07:14:01.129Z,6.83
2023-11-30T07:16:30.940Z,6.57
2023-11-30T07:19:00.679Z,6.67
2023-11-30T07:21:30.527Z,6.50
2023-11-30T07:24:01.058Z,6.90
2023-11-30T07:26:33.638Z,6.73
2023-11-30T07:29:03.575Z,6.47
2023-11-30T07:31:33.251Z,6.53
2023-11-30T07:34:04.497Z,6.03
2023-11-30T07:36:34.324Z,6.10
2023-11-30T07:39:04.292Z,7.00
2023-11-30T07:41:36.600Z,6.03
2023-11-30T07:44:06.543Z,6.87
2023-11-30T07:46:36.188Z,6.80
2023-11-30T07:49:05.884Z,6.37
2023-11-30T07:51:35.561Z,6.20
2023-11-30T07:54:05.347Z,6.73
2023-11-30T07:56:37.768Z,6.47
2023-11-30T07:59:07.532Z,6.83
2023-11-30T08:01:37.131Z,6.43
2023-11-30T08:04:07.109Z,5.90
2023-11-30T08:06:36.984Z,6.23
2023-11-30T08:09:07.729Z,6.87
2023-11-30T08:11:41.037Z,6.87
2023-11-30T08:14:10.870Z,8.57
2023-11-30T08:16:42.000Z,6.63
2023-11-30T08:19:12.333Z,6.73
2023-11-30T08:21:42.803Z,6.53
2023-11-30T08:24:13.159Z,6.53
2023-11-30T08:26:47.821Z,7.00
2023-11-30T08:29:18.646Z,6.13
2023-11-30T08:31:48.757Z,6.53
2023-11-30T08:34:18.432Z,6.17
2023-11-30T08:36:49.005Z,7.73
2023-11-30T08:39:23.819Z,8.80
2023-11-30T08:41:56.150Z,9.93
2023-11-30T08:44:26.860Z,9.90
2023-11-30T08:46:57.188Z,10.70
2023-11-30T08:49:26.852Z,9.47
2023-11-30T08:51:56.736Z,9.63
2023-11-30T08:54:26.484Z,9.67
2023-11-30T08:56:59.183Z,10.40
2023-11-30T08:59:29.106Z,10.03
2023-11-30T09:01:58.848Z,8.90
2023-11-30T09:04:28.643Z,10.30
2023-11-30T09:06:58.313Z,11.30
2023-11-30T09:09:29.596Z,7.60
2023-11-30T09:12:03.688Z,8.40
2023-11-30T09:14:33.952Z,8.00
2023-11-30T09:17:05.496Z,8.20
2023-11-30T09:19:35.727Z,8.30
2023-11-30T09:22:05.404Z,6.93
2023-11-30T09:24:35.292Z,7.33
2023-11-30T09:27:07.903Z,7.13
2023-11-30T09:29:39.245Z,6.27
2023-11-30T09:32:09.275Z,6.20
2023-11-30T09:34:39.375Z,5.72
2023-11-30T09:37:09.105Z,5.93
2023-11-30T09:39:39.666Z,6.22
2023-11-30T09:42:17.546Z,6.38
2023-11-30T09:44:47.419Z,5.95
2023-11-30T09:47:18.165Z,5.47
2023-11-30T09:49:47.897Z,5.90
2023-11-30T09:52:17.622Z,6.10
2023-11-30T09:54:48.234Z,6.07
2023-11-30T09:57:20.624Z,6.25
2023-11-30T09:59:50.350Z,5.97
2023-11-30T10:02:20.114Z,5.72
2023-11-30T10:04:49.927Z,6.13
2023-11-30T10:07:19.713Z,5.93
2023-11-30T10:09:49.453Z,5.70
2023-11-30T10:12:22.279Z,5.35
2023-11-30T10:14:52.094Z,5.68
2023-11-30T10:17:21.763Z,5.70
2023-11-30T10:19:51.556Z,5.18
2023-11-30T10:22:21.523Z,5.47
2023-11-30T10:24:51.301Z,5.40
2023-11-30T10:27:25.769Z,5.32
2023-11-30T10:30:00.222Z,5.23
2023-11-30T10:32:30.176Z,5.65
2023-11-30T10:35:01.138Z,5.78
2023-11-30T10:37:33.151Z,4.95
2023-11-30T10:40:05.001Z,5.45
2023-11-30T10:42:38.297Z,5.65
2023-11-30T10:45:08.843Z,5.40
2023-11-30T10:47:39.012Z,5.25
2023-11-30T10:50:10.534Z,5.28
2023-11-30T10:52:40.505Z,6.88
2023-11-30T10:55:11.649Z,5.70
2023-11-30T10:57:47.068Z,7.30
2023-11-30T11:00:17.770Z,6.22
2023-11-30T11:02:48.926Z,5.18
2023-11-30T11:05:20.143Z,5.75
2023-11-30T11:07:50.294Z,5.68
2023-11-30T11:10:23.806Z,6.20
2023-11-30T11:12:57.916Z,6.00
2023-11-30T11:15:30.023Z,5.13
2023-11-30T11:18:04.657Z,6.20
2023-11-30T11:20:35.630Z,6.03
2023-11-30T11:23:11.303Z,5.13
2023-11-30T11:25:48.063Z,5.93
2023-11-30T11:28:21.267Z,5.93
2023-11-30T11:30:51.754Z,5.32
2023-11-30T11:33:22.999Z,5.10
2023-11-30T11:35:54.373Z,7.47
2023-11-30T11:38:27.440Z,9.93
2023-11-30T11:40:57.573Z,5.80
2023-11-30T11:43:29.906Z,5.75
2023-11-30T11:45:59.869Z,6.43
2023-11-30T11:48:29.610Z,7.22
2023-11-30T11:51:02.644Z,6.22
2023-11-30T11:53:32.428Z,10.55
2023-11-30T11:56:06.158Z,6.38
2023-11-30T11:58:39.007Z,5.32
2023-11-30T12:01:09.072Z,18.73
2023-11-30T12:03:47.728Z,19.90
2023-11-30T12:06:17.975Z,11.25
2023-11-30T12:08:47.750Z,6.75
2023-11-30T12:11:17.376Z,5.22
2023-11-30T12:13:53.264Z,5.13
2023-11-30T12:16:23.182Z,5.22
2023-11-30T12:18:53.026Z,4.93
2023-11-30T12:21:23.900Z,5.82
2023-11-30T12:23:53.576Z,4.97
2023-11-30T12:26:23.205Z,5.22
2023-11-30T12:28:56.198Z,5.60
2023-11-30T12:31:26.257Z,5.25
2023-11-30T12:33:56.824Z,5.10
2023-11-30T12:36:26.589Z,5.10
2023-11-30T12:38:56.233Z,5.13
2023-11-30T12:41:26.686Z,6.05
2023-11-30T12:43:58.894Z,5.78
2023-11-30T12:46:28.843Z,5.63
2023-11-30T12:48:58.607Z,5.45
2023-11-30T12:51:28.502Z,5.03
2023-11-30T12:53:58.221Z,5.13
2023-11-30T12:56:28.964Z,5.55
2023-11-30T12:59:01.595Z,5.07
2023-11-30T13:01:31.709Z,4.80
2023-11-30T13:04:01.824Z,5.95
2023-11-30T13:06:32.251Z,5.88
2023-11-30T13:09:01.935Z,5.82
2023-11-30T13:11:31.546Z,6.07
2023-11-30T13:14:04.275Z,5.38
2023-11-30T13:16:34.037Z,5.85
2023-11-30T13:19:01.214Z,5.75
2023-11-30T13:21:31.799Z,5.65
2023-11-30T13:24:01.516Z,5.88
2023-11-30T13:26:31.157Z,6.25
2023-11-30T13:29:03.527Z,5.10
2023-11-30T13:31:33.213Z,6.10
2023-11-30T13:34:03.094Z,6.68
2023-11-30T13:36:33.236Z,5.88
2023-11-30T13:39:04.316Z,6.38
2023-11-30T13:41:34.290Z,6.18
2023-11-30T13:44:06.547Z,6.63
2023-11-30T13:46:40.165Z,6.30
2023-11-30T13:49:14.877Z,5.78
2023-11-30T13:51:45.952Z,6.15
2023-11-30T13:54:16.114Z,6.28
2023-11-30T13:56:45.912Z,6.43
2023-11-30T13:59:18.263Z,6.53
2023-11-30T14:01:48.021Z,5.18
2023-11-30T14:04:17.813Z,6.22
2023-11-30T14:06:51.408Z,6.07
2023-11-30T14:09:27.671Z,5.80
2023-11-30T14:11:57.648Z,5.57
2023-11-30T14:14:30.401Z,6.47
2023-11-30T14:17:02.416Z,6.57
2023-11-30T14:19:34.934Z,8.93
2023-11-30T14:22:04.668Z,8.68
2023-11-30T14:24:35.324Z,8.65
2023-11-30T14:27:05.646Z,7.40
2023-11-30T14:29:39.409Z,8.18
2023-11-30T14:32:09.800Z,6.10
2023-11-30T14:34:39.796Z,5.95
2023-11-30T14:37:09.385Z,5.40
2023-11-30T14:39:39.104Z,5.95
2023-11-30T14:42:09.736Z,6.00
2023-11-30T14:44:42.094Z,6.23
2023-11-30T14:47:11.958Z,5.88
2023-11-30T14:49:41.641Z,5.80
2023-11-30T14:52:11.471Z,6.10
2023-11-30T14:54:42.154Z,6.10
2023-11-30T14:57:14.465Z,5.37
2023-11-30T14:59:46.827Z,6.20
2023-11-30T15:02:16.569Z,5.80
2023-11-30T15:04:46.217Z,5.27
2023-11-30T15:07:15.853Z,5.90
2023-11-30T15:09:45.981Z,5.07
2023-11-30T15:12:15.741Z,5.20
2023-11-30T15:14:48.677Z,5.47
2023-11-30T15:17:18.438Z,5.60
2023-11-30T15:19:48.047Z,6.07
2023-11-30T15:22:17.889Z,5.53
2023-11-30T15:24:47.538Z,6.13
2023-11-30T15:27:17.286Z,6.30
2023-11-30T15:29:49.583Z,6.20
2023-11-30T15:32:19.230Z,5.93
2023-11-30T15:34:49.289Z,6.03
2023-11-30T15:37:19.185Z,6.07
2023-11-30T15:39:49.021Z,6.17
2023-11-30T15:42:18.682Z,5.17
2023-11-30T15:44:51.060Z,6.57
2023-11-30T15:47:20.935Z,5.77
2023-11-30T15:49:50.636Z,6.70
2023-11-30T15:52:20.352Z,6.03
2023-11-30T15:54:50.078Z,6.17
2023-11-30T15:57:19.732Z,6.30
2023-11-30T15:59:51.998Z,5.77
2023-11-30T16:02:21.690Z,5.67
2023-11-30T16:04:51.435Z,6.23
2023-11-30T16:07:21.149Z,6.17
2023-11-30T16:09:50.839Z,8.40
2023-11-30T16:12:21.000Z,6.97
2023-11-30T16:14:53.809Z,5.97
2023-11-30T16:17:24.171Z,5.57
2023-11-30T16:19:53.975Z,6.07
2023-11-30T16:22:23.672Z,6.50
2023-11-30T16:24:53.461Z,7.20
2023-11-30T16:27:24.487Z,6.53
2023-11-30T16:29:57.564Z,6.87
2023-11-30T16:32:27.310Z,5.57
2023-11-30T16:34:57.095Z,5.37
2023-11-30T16:37:26.850Z,6.97
2023-11-30T16:39:56.514Z,6.33
2023-11-30T16:42:26.262Z,6.43
2023-11-30T16:44:58.725Z,8.23
2023-11-30T16:47:29.020Z,6.40
2023-11-30T16:49:58.700Z,5.77
2023-11-30T16:52:30.048Z,6.07
2023-11-30T16:54:59.777Z,7.17
2023-11-30T16:57:33.523Z,7.47
2023-11-30T17:00:07.605Z,6.70
2023-11-30T17:02:37.343Z,10.80
2023-11-30T17:05:07.542Z,9.63
2023-11-30T17:07:37.145Z,10.47
2023-11-30T17:10:06.958Z,10.73
2023-11-30T17:12:36.899Z,10.63
2023-11-30T17:15:09.717Z,10.10
2023-11-30T17:17:39.500Z,9.83
2023-11-30T17:20:10.114Z,8.60
2023-11-30T17:22:39.789Z,7.30
2023-11-30T17:25:09.918Z,7.10
2023-11-30T17:27:39.632Z,7.43
2023-11-30T17:30:12.409Z,7.33
2023-11-30T17:32:42.161Z,7.37
2023-11-30T17:35:12.461Z,6.83
2023-11-30T17:37:42.294Z,6.53
2023-11-30T17:40:12.837Z,6.97
2023-11-30T17:42:42.656Z,6.63
2023-11-30T17:45:15.196Z,6.37
2023-11-30T17:47:45.032Z,6.40
2023-11-30T17:50:14.698Z,5.67
2023-11-30T17:52:44.376Z,6.47
2023-11-30T17:55:14.376Z,6.80
2023-11-30T17:57:44.675Z,8.03
2023-11-30T18:00:18.561Z,6.77
2023-11-30T18:02:50.279Z,6.97
2023-11-30T18:05:20.365Z,6.47
2023-11-30T18:07:50.180Z,7.30
2023-11-30T18:10:19.806Z,8.60
2023-11-30T18:12:49.504Z,8.60
2023-11-30T18:15:21.819Z,7.17
2023-11-30T18:17:51.922Z,6.90
2023-11-30T18:20:19.050Z,6.40
2023-11-30T18:22:48.723Z,7.13
2023-11-30T18:25:18.551Z,6.50
2023-11-30T18:27:48.226Z,7.63
2023-11-30T18:30:18.362Z,6.77
2023-11-30T18:32:51.048Z,7.00
2023-11-30T18:35:21.254Z,6.90
2023-11-30T18:37:50.894Z,7.43
2023-11-30T18:40:20.647Z,6.93
2023-11-30T18:42:50.523Z,7.67
2023-11-30T18:45:20.215Z,6.73
2023-11-30T18:47:52.621Z,6.77
2023-11-30T18:50:22.379Z,6.67
2023-11-30T18:52:52.873Z,6.90
2023-11-30T18:55:22.512Z,7.63
2023-11-30T18:57:53.770Z,7.17
2023-11-30T19:00:23.582Z,8.27
2023-11-30T19:02:56.713Z,7.40
2023-11-30T19:05:26.652Z,7.27
2023-11-30T19:07:56.415Z,7.63
2023-11-30T19:10:26.199Z,8.17
2023-11-30T19:12:56.029Z,8.60
2023-11-30T19:15:25.865Z,8.30
2023-11-30T19:18:00.531Z,6.97
2023-11-30T19:20:31.923Z,7.33
2023-11-30T19:23:01.889Z,8.90
2023-11-30T19:25:31.629Z,8.60
2023-11-30T19:28:01.639Z,7.93
2023-11-30T19:30:31.382Z,7.47
2023-11-30T19:33:03.808Z,7.67
2023-11-30T19:35:34.662Z,7.70
2023-11-30T19:38:04.407Z,7.63
2023-11-30T19:40:34.061Z,7.33
2023-11-30T19:43:03.886Z,7.70
2023-11-30T19:45:33.600Z,7.53
2023-11-30T19:48:06.012Z,7.43
2023-11-30T19:50:35.989Z,7.70
2023-11-30T19:53:05.694Z,7.27
2023-11-30T19:55:35.361Z,8.30
2023-11-30T19:58:05.106Z,7.57
2023-11-30T20:00:34.897Z,7.83
2023-11-30T20:03:07.256Z,8.13
2023-11-30T20:05:38.293Z,7.53
2023-11-30T20:08:08.345Z,8.60
2023-11-30T20:10:38.170Z,8.17
2023-11-30T20:13:07.998Z,8.00
2023-11-30T20:15:37.716Z,7.80
2023-11-30T20:18:10.239Z,7.83
2023-11-30T20:20:40.001Z,7.60
2023-11-30T20:23:10.245Z,8.07
2023-11-30T20:25:39.850Z,8.63
2023-11-30T20:28:09.483Z,7.93
2023-11-30T20:30:39.504Z,9.00
2023-11-30T20:33:11.851Z,10.87
2023-11-30T20:35:41.740Z,10.57
2023-11-30T20:38:11.423Z,11.07
2023-11-30T20:40:41.414Z,10.40
2023-11-30T20:43:11.033Z,10.37
2023-11-30T20:45:40.776Z,8.40
2023-11-30T20:48:13.951Z,9.60
2023-11-30T20:50:43.709Z,8.30
2023-11-30T20:53:14.881Z,10.33
2023-11-30T20:55:46.124Z,8.87
2023-11-30T20:58:16.034Z,8.27
2023-11-30T21:00:45.771Z,7.77
2023-11-30T21:03:18.174Z,8.77
2023-11-30T21:05:49.882Z,9.17
2023-11-30T21:08:19.819Z,8.40
2023-11-30T21:10:49.512Z,9.07
2023-11-30T21:13:20.720Z,9.03
2023-11-30T21:15:50.604Z,9.63
2023-11-30T21:18:22.957Z,9.77
2023-11-30T21:20:52.767Z,8.97
2023-11-30T21:23:22.393Z,7.77
2023-11-30T21:25:52.195Z,9.03
2023-11-30T21:28:21.814Z,8.73
2023-11-30T21:30:51.577Z,8.53
2023-11-30T21:33:24.079Z,9.37
2023-11-30T21:35:53.857Z,8.27
2023-11-30T21:38:23.538Z,8.27
2023-11-30T21:40:53.276Z,8.30
2023-11-30T21:43:23.211Z,8.57
2023-11-30T21:45:53.564Z,11.07
2023-11-30T21:48:26.012Z,10.40
2023-11-30T21:50:55.954Z,8.67
2023-11-30T21:53:25.670Z,11.43
2023-11-30T21:55:55.364Z,9.27
2023-11-30T21:58:25.100Z,7.53
2023-11-30T22:00:55.458Z,8.53
2023-11-30T22:03:28.027Z,9.30
2023-11-30T22:05:57.813Z,8.30
2023-11-30T22:08:31.195Z,9.70
2023-11-30T22:11:00.969Z,7.63
2023-11-30T22:13:30.622Z,8.37
2023-11-30T22:16:06.830Z,8.47
2023-11-30T22:18:44.698Z,7.93
2023-11-30T22:21:17.407Z,8.83
2023-11-30T22:23:47.443Z,8.00
2023-11-30T22:26:17.116Z,7.93
2023-11-30T22:28:46.747Z,7.30
2023-11-30T22:31:18.675Z,7.20
2023-11-30T22:33:51.111Z,6.72
2023-11-30T22:36:20.980Z,7.03
2023-11-30T22:38:50.611Z,6.60
2023-11-30T22:41:20.288Z,7.77
2023-11-30T22:43:50.051Z,7.53
2023-11-30T22:46:20.954Z,6.73
2023-11-30T22:48:53.493Z,7.13
2023-11-30T22:51:23.818Z,7.30
2023-11-30T22:53:53.553Z,7.57
2023-11-30T22:56:23.946Z,7.13
2023-11-30T22:58:53.972Z,7.80
2023-11-30T23:01:23.875Z,6.97
2023-11-30T23:03:56.701Z,7.07
2023-11-30T23:06:26.580Z,6.80
2023-11-30T23:08:56.266Z,7.63
2023-11-30T23:11:25.936Z,7.23
2023-11-30T23:13:56.138Z,7.93
2023-11-30T23:16:26.529Z,7.03
2023-11-30T23:18:59.463Z,6.60
2023-11-30T23:21:29.503Z,7.40
2023-11-30T23:23:59.088Z,6.87
2023-11-30T23:26:28.907Z,8.13
2023-11-30T23:28:58.666Z,8.20
2023-11-30T23:31:28.934Z,8.40
2023-11-30T23:34:01.270Z,8.30
2023-11-30T23:36:31.065Z,7.93
2023-11-30T23:39:04.517Z,7.63
2023-11-30T23:41:34.282Z,7.70
2023-11-30T23:44:04.009Z,7.03
2023-11-30T23:46:33.691Z,7.13
2023-11-30T23:49:05.967Z,7.57
2023-11-30T23:51:35.784Z,7.20
2023-11-30T23:54:05.385Z,6.67
2023-11-30T23:56:35.092Z,7.47
2023-11-30T23:59:04.914Z,7.67
